createdAt,value
2022-10-28T02:08:30.951Z,11.20
2022-10-28T02:11:12.549Z,11.10
2022-10-28T02:13:50.097Z,11.00
2022-10-28T02:16:25.839Z,11.60
2022-10-28T02:19:06.188Z,11.10
2022-10-28T02:21:41.154Z,11.50
2022-10-28T02:24:16.444Z,10.90
2022-10-28T02:26:52.103Z,11.10
2022-10-28T02:29:28.664Z,10.90
2022-10-28T02:32:01.584Z,10.90
2022-10-28T02:34:34.209Z,10.90
2022-10-28T02:37:07.657Z,11.10
2022-10-28T02:39:40.674Z,11.70
2022-10-28T02:42:13.546Z,11.40
2022-10-28T02:44:46.371Z,10.70
2022-10-28T02:47:19.387Z,10.90
2022-10-28T02:49:53.247Z,11.00
2022-10-28T02:52:22.954Z,10.90
2022-10-28T02:54:55.081Z,10.70
2022-10-28T02:57:25.397Z,10.80
2022-10-28T03:00:08.927Z,10.70
2022-10-28T03:02:37.242Z,10.70
2022-10-28T03:05:07.602Z,10.90
2022-10-28T03:07:35.531Z,10.70
2022-10-28T03:10:03.508Z,10.70
2022-10-28T03:12:31.441Z,10.60
2022-10-28T03:17:27.654Z,10.90
2022-10-28T03:19:55.607Z,11.00
2022-10-28T03:22:24.888Z,11.60
2022-10-28T03:24:52.839Z,10.90
2022-10-28T03:27:20.780Z,10.90
2022-10-28T03:29:48.735Z,11.00
2022-10-28T03:32:16.731Z,10.90
2022-10-28T03:34:44.715Z,11.50
2022-10-28T03:37:12.660Z,11.20
2022-10-28T03:39:41.944Z,12.00
2022-10-28T03:42:09.881Z,12.30
2022-10-28T03:44:37.813Z,11.80
2022-10-28T03:47:05.849Z,11.20
2022-10-28T03:49:33.788Z,11.00
2022-10-28T03:52:01.738Z,12.50
2022-10-28T03:54:29.686Z,11.90
2022-10-28T03:56:58.950Z,11.60
2022-10-28T03:59:26.916Z,11.70
2022-10-28T04:01:54.922Z,12.20
2022-10-28T04:04:25.060Z,12.30
2022-10-28T04:06:54.987Z,11.70
2022-10-28T04:09:22.946Z,12.40
2022-10-28T04:11:50.883Z,12.50
2022-10-28T04:14:20.184Z,12.40
2022-10-28T04:16:48.110Z,11.60
2022-10-28T04:19:16.051Z,12.20
2022-10-28T04:21:43.968Z,12.10
2022-10-28T04:24:12.079Z,12.90
2022-10-28T04:26:40.016Z,11.70
2022-10-28T04:29:08.036Z,11.60
2022-10-28T04:31:37.329Z,11.70
2022-10-28T04:34:05.225Z,11.80
2022-10-28T04:36:33.167Z,12.30
2022-10-28T04:39:01.100Z,11.50
2022-10-28T04:41:29.098Z,11.90
2022-10-28T04:43:57.068Z,12.30
2022-10-28T04:46:25.052Z,12.80
2022-10-28T04:48:54.327Z,11.80
2022-10-28T04:51:22.249Z,12.30
2022-10-28T04:53:50.163Z,12.90
2022-10-28T04:56:18.071Z,13.00
2022-10-28T04:58:46.001Z,11.80
2022-10-28T05:01:14.000Z,11.80
2022-10-28T05:03:42.011Z,12.80
2022-10-28T05:06:11.307Z,12.30
2022-10-28T05:08:39.242Z,11.70
2022-10-28T05:11:07.148Z,12.80
2022-10-28T05:13:35.071Z,11.90
2022-10-28T05:16:03.032Z,11.80
2022-10-28T05:18:30.981Z,11.90
2022-10-28T05:20:58.933Z,12.80
2022-10-28T05:23:30.831Z,12.00
2022-10-28T05:25:59.207Z,13.00
2022-10-28T05:28:27.203Z,11.90
2022-10-28T05:30:55.207Z,12.80
2022-10-28T05:33:23.408Z,12.40
2022-10-28T05:35:51.907Z,12.50
2022-10-28T05:38:19.855Z,11.90
2022-10-28T05:40:49.165Z,12.80
2022-10-28T05:43:17.122Z,12.60
2022-10-28T05:45:45.157Z,11.90
2022-10-28T05:48:13.230Z,11.90
2022-10-28T05:50:41.137Z,12.60
2022-10-28T05:53:09.119Z,12.30
2022-10-28T05:55:37.062Z,12.70
2022-10-28T05:58:06.359Z,12.20
2022-10-28T06:00:34.362Z,12.80
2022-10-28T06:03:09.293Z,13.40
2022-10-28T06:05:37.678Z,12.80
2022-10-28T06:08:06.716Z,12.20
2022-10-28T06:10:34.802Z,11.90
2022-10-28T06:13:01.216Z,13.20
2022-10-28T06:15:30.555Z,12.90
2022-10-28T06:17:58.492Z,11.90
2022-10-28T06:20:26.465Z,12.90
2022-10-28T06:22:56.130Z,13.00
2022-10-28T06:25:26.073Z,12.40
2022-10-28T06:27:55.066Z,11.80
2022-10-28T06:30:24.380Z,12.80
2022-10-28T06:32:56.161Z,12.50
2022-10-28T06:35:24.355Z,12.90
2022-10-28T06:37:54.602Z,11.90
2022-10-28T06:40:23.786Z,12.80
2022-10-28T06:42:57.170Z,12.50
2022-10-28T06:45:25.368Z,12.70
2022-10-28T06:47:58.579Z,12.00
2022-10-28T06:50:27.216Z,13.40
2022-10-28T06:52:57.166Z,14.10
2022-10-28T06:55:25.219Z,13.60
2022-10-28T06:57:53.419Z,12.30
2022-10-28T07:00:21.885Z,11.30
2022-10-28T07:02:52.015Z,12.80
2022-10-28T07:05:21.624Z,12.50
2022-10-28T07:07:49.581Z,12.50
2022-10-28T07:10:17.650Z,13.30
2022-10-28T07:12:45.634Z,12.70
2022-10-28T07:15:13.600Z,13.50
2022-10-28T07:17:41.565Z,12.80
2022-10-28T07:20:10.581Z,12.90
2022-10-28T07:22:39.861Z,13.00
2022-10-28T07:25:08.805Z,14.20
2022-10-28T07:27:36.778Z,13.00
2022-10-28T07:30:05.074Z,13.90
2022-10-28T07:32:33.336Z,13.20
2022-10-28T07:35:02.353Z,13.20
2022-10-28T07:37:30.311Z,13.20
2022-10-28T07:39:59.724Z,14.20
2022-10-28T07:42:27.712Z,14.50
2022-10-28T07:44:55.656Z,14.00
2022-10-28T07:47:23.620Z,13.50
2022-10-28T07:49:52.254Z,13.50
2022-10-28T07:52:20.204Z,16.20
2022-10-28T07:57:18.213Z,15.20
2022-10-28T07:59:46.167Z,14.80
2022-10-28T08:02:17.785Z,14.20
2022-10-28T08:04:45.783Z,14.80
2022-10-28T08:07:14.161Z,13.90
2022-10-28T08:09:42.522Z,14.40
2022-10-28T08:12:13.483Z,15.10
2022-10-28T08:14:43.042Z,14.60
2022-10-28T08:17:10.987Z,14.40
2022-10-28T08:19:38.929Z,15.40
2022-10-28T08:22:07.728Z,15.10
2022-10-28T08:24:36.595Z,15.00
2022-10-28T08:27:04.632Z,14.40
2022-10-28T08:29:32.584Z,14.70
2022-10-28T08:32:02.016Z,14.40
2022-10-28T08:34:31.300Z,14.90
2022-10-28T08:36:59.515Z,14.90
2022-10-28T08:39:27.510Z,15.00
2022-10-28T08:42:04.002Z,15.10
2022-10-28T08:45:04.446Z,15.30
2022-10-28T08:47:42.652Z,15.90
2022-10-28T08:50:15.334Z,15.70
2022-10-28T08:52:51.978Z,16.10
2022-10-28T08:55:24.355Z,16.40
2022-10-28T08:57:56.213Z,16.50
2022-10-28T09:00:27.124Z,16.60
2022-10-28T09:03:17.859Z,16.70
2022-10-28T09:05:50.003Z,16.80
2022-10-28T09:08:24.453Z,16.90
2022-10-28T09:11:34.278Z,17.50
2022-10-28T09:14:20.627Z,17.20
2022-10-28T09:16:50.855Z,17.60
2022-10-28T09:19:35.046Z,17.60
2022-10-28T09:22:20.667Z,17.90
2022-10-28T09:24:53.709Z,17.90
2022-10-28T09:27:35.635Z,18.00
2022-10-28T09:30:17.640Z,18.30
2022-10-28T09:32:54.072Z,18.80
2022-10-28T11:16:22.435Z,22.30
2022-10-28T11:18:52.440Z,22.30
2022-10-28T11:21:33.387Z,22.50
2022-10-28T11:24:16.350Z,22.60
2022-10-28T11:26:53.346Z,22.60
2022-10-28T11:29:21.326Z,22.60
2022-10-28T11:32:19.270Z,22.60
2022-10-28T11:35:00.281Z,22.70
2022-10-28T11:37:42.016Z,22.50
2022-10-28T11:40:22.466Z,22.70
2022-10-28T11:43:02.814Z,22.50
2022-10-28T11:45:38.312Z,22.70
2022-10-28T11:48:19.754Z,22.40
2022-10-28T11:51:00.519Z,22.40
2022-10-28T11:53:52.591Z,22.60
2022-10-28T11:56:35.650Z,22.30
2022-10-28T11:59:25.820Z,22.40
2022-10-28T12:02:02.661Z,22.50
2022-10-28T12:04:47.230Z,22.50
2022-10-28T12:07:37.756Z,22.60
2022-10-28T12:10:22.674Z,22.60
2022-10-28T12:12:57.469Z,22.60
2022-10-28T12:15:41.637Z,22.60
2022-10-28T12:18:18.817Z,22.60
2022-10-28T12:20:54.945Z,22.70
2022-10-28T12:23:25.522Z,22.70
2022-10-28T12:25:58.352Z,22.30
2022-10-28T12:28:30.571Z,22.60
2022-10-28T12:31:00.126Z,22.60
2022-10-28T12:33:35.913Z,22.60
2022-10-28T12:36:20.828Z,22.60
2022-10-28T12:38:55.215Z,22.60
2022-10-28T12:41:25.936Z,22.70
2022-10-28T12:43:58.326Z,22.80
2022-10-28T12:46:35.349Z,22.80
2022-10-28T12:49:10.828Z,22.80
2022-10-28T12:51:41.827Z,22.80
2022-10-28T12:54:19.409Z,22.90
2022-10-28T12:56:52.830Z,22.80
2022-10-28T12:59:28.949Z,23.00
2022-10-28T13:02:01.348Z,22.90
2022-10-28T13:04:30.051Z,23.10
2022-10-28T13:07:19.908Z,23.20
2022-10-28T13:10:04.965Z,23.20
2022-10-28T13:13:01.371Z,23.30
2022-10-28T13:16:09.249Z,23.50
2022-10-28T13:18:55.578Z,23.50
2022-10-28T13:21:40.477Z,23.80
2022-10-28T13:24:17.475Z,23.70
2022-10-28T13:26:46.652Z,23.90
2022-10-28T13:29:23.395Z,24.00
2022-10-28T13:31:52.927Z,24.30
2022-10-28T13:34:31.583Z,24.40
2022-10-28T13:37:00.890Z,24.50
2022-10-28T13:39:43.908Z,24.70
2022-10-28T13:42:47.816Z,24.80
2022-10-28T13:45:48.366Z,24.90
2022-10-28T13:48:53.065Z,25.00
2022-10-28T13:51:45.114Z,25.20
2022-10-28T13:54:26.763Z,25.50
2022-10-28T13:56:56.330Z,26.10
2022-10-28T13:59:29.173Z,26.30
2022-10-28T14:02:34.677Z,26.80
2022-10-28T14:05:07.200Z,27.30
2022-10-28T14:07:39.408Z,27.40
2022-10-28T14:10:23.357Z,27.90
2022-10-28T14:12:55.519Z,28.50
2022-10-28T14:15:26.842Z,27.80
2022-10-28T14:18:09.699Z,27.60
2022-10-28T14:21:00.513Z,27.30
2022-10-28T14:24:16.526Z,27.20
2022-10-28T14:27:30.569Z,26.70
2022-10-28T14:30:20.145Z,26.40
2022-10-28T14:33:23.077Z,26.30
2022-10-28T14:36:00.728Z,26.20
2022-10-28T14:39:17.494Z,26.40
2022-10-28T14:42:04.926Z,26.20
2022-10-28T14:44:48.796Z,26.30
2022-10-28T14:47:34.984Z,26.10
2022-10-28T14:50:05.049Z,25.90
2022-10-28T14:52:37.334Z,25.70
2022-10-28T14:55:09.735Z,25.50
2022-10-28T14:57:37.681Z,25.10
2022-10-28T15:00:09.140Z,25.20
2022-10-28T15:02:38.888Z,24.90
2022-10-28T15:05:17.857Z,24.70
2022-10-28T15:07:46.017Z,24.60
2022-10-28T15:10:18.543Z,23.90
2022-10-28T15:12:48.924Z,24.30
2022-10-28T15:15:19.235Z,24.10
2022-10-28T15:17:47.248Z,23.80
2022-10-28T15:20:22.279Z,23.50
2022-10-28T15:22:50.731Z,23.40
2022-10-28T15:25:21.794Z,23.10
2022-10-28T15:27:53.345Z,22.50
2022-10-28T15:30:23.803Z,22.50
2022-10-28T15:32:52.384Z,22.00
2022-10-28T15:35:38.965Z,22.00
2022-10-28T15:38:42.435Z,21.30
2022-10-28T15:41:45.939Z,21.30
2022-10-28T15:44:34.141Z,21.10
2022-10-28T15:47:13.345Z,20.60
2022-10-28T15:49:42.286Z,20.80
2022-10-28T15:52:38.629Z,20.80
2022-10-28T15:55:35.832Z,20.60
2022-10-28T15:58:36.660Z,20.10
2022-10-28T16:01:10.408Z,20.10
2022-10-28T16:03:46.233Z,20.30
2022-10-28T16:06:24.316Z,20.00
2022-10-28T16:09:02.448Z,19.50
2022-10-28T16:11:31.523Z,19.80
2022-10-28T16:14:02.204Z,19.70
2022-10-28T16:16:32.581Z,19.70
2022-10-28T16:19:07.297Z,19.50
2022-10-28T16:21:36.825Z,19.50
2022-10-28T16:24:05.062Z,19.50
2022-10-28T16:26:33.792Z,19.30
2022-10-28T16:29:01.750Z,19.20
2022-10-28T16:31:32.553Z,18.90
2022-10-28T16:34:00.741Z,18.80
2022-10-28T16:36:30.303Z,19.10
2022-10-28T16:38:58.242Z,18.90
2022-10-28T16:41:26.193Z,18.80
2022-10-28T16:43:55.926Z,18.70
2022-10-28T16:46:24.005Z,18.50
2022-10-28T16:48:53.268Z,18.50
2022-10-28T16:56:19.936Z,17.90
2022-10-28T16:58:48.000Z,17.80
2022-10-28T17:01:18.841Z,17.70
2022-10-28T17:03:46.868Z,17.50
2022-10-28T17:06:16.207Z,17.60
2022-10-28T17:14:05.728Z,17.40
2022-10-28T17:16:34.435Z,17.30
2022-10-28T17:19:03.196Z,16.70
2022-10-28T17:21:32.532Z,17.10
2022-10-28T17:38:57.640Z,16.80
2022-10-28T17:41:25.645Z,16.80
2022-10-28T17:43:56.685Z,16.40
2022-10-28T17:46:24.812Z,16.40
2022-10-28T17:48:52.741Z,16.50
2022-10-28T17:51:22.271Z,16.50
2022-10-28T17:53:54.625Z,16.50
2022-10-28T17:56:24.201Z,16.50
2022-10-28T17:58:54.336Z,16.10
2022-10-28T18:01:22.446Z,16.90
2022-10-28T18:03:52.234Z,16.30
2022-10-28T18:06:20.554Z,16.10
2022-10-28T18:11:19.603Z,16.00
2022-10-28T18:13:52.799Z,16.10
2022-10-28T18:16:22.697Z,16.00
2022-10-28T18:18:50.975Z,16.20
2022-10-28T18:21:19.024Z,15.90
2022-10-28T18:23:51.420Z,16.00
2022-10-28T18:26:19.648Z,16.20
2022-10-28T18:28:49.948Z,15.90
2022-10-28T18:31:19.960Z,15.80
2022-10-28T18:33:49.125Z,15.70
2022-10-28T18:36:19.138Z,15.60
2022-10-28T18:38:47.073Z,15.90
2022-10-28T18:41:16.469Z,15.60
2022-10-28T18:43:44.839Z,15.50
2022-10-28T18:46:14.521Z,15.40
2022-10-28T18:48:42.616Z,15.50
2022-10-28T18:51:13.394Z,15.90
2022-10-28T18:53:43.126Z,15.90
2022-10-28T18:56:12.453Z,15.90
2022-10-28T18:58:40.457Z,15.70
2022-10-28T19:01:10.297Z,15.30
2022-10-28T19:03:39.953Z,15.40
2022-10-28T19:06:10.807Z,15.30
2022-10-28T19:08:39.656Z,15.30
2022-10-28T19:11:09.124Z,15.20
2022-10-28T19:13:39.292Z,15.60
2022-10-28T19:16:08.652Z,15.20
2022-10-28T19:18:38.237Z,15.40
2022-10-28T19:21:10.643Z,15.20
2022-10-28T19:23:39.066Z,15.30
2022-10-28T19:26:08.167Z,15.40
2022-10-28T19:28:40.210Z,15.30
2022-10-28T19:31:11.106Z,15.10
2022-10-28T19:33:39.266Z,15.20
2022-10-28T19:36:12.030Z,15.30
2022-10-28T19:38:39.999Z,15.10
2022-10-28T19:41:09.927Z,15.10
2022-10-28T19:46:08.520Z,14.90
2022-10-28T19:51:05.216Z,14.80
2022-10-28T19:53:34.674Z,15.20
2022-10-28T19:56:04.421Z,15.00
2022-10-28T19:58:33.446Z,14.90
2022-10-28T20:01:03.397Z,14.90
2022-10-28T20:03:34.504Z,15.10
2022-10-28T20:06:06.440Z,14.60
2022-10-28T20:08:36.967Z,14.60
2022-10-28T20:11:06.624Z,14.60
2022-10-28T20:16:05.837Z,14.60
2022-10-28T20:18:34.492Z,14.60
2022-10-28T20:21:07.043Z,14.60
2022-10-28T20:23:36.678Z,14.50
2022-10-28T20:26:05.652Z,14.50
2022-10-28T20:28:34.109Z,14.60
2022-10-28T20:31:03.994Z,14.80
2022-10-28T20:33:32.253Z,14.40
2022-10-28T20:36:00.285Z,14.40
2022-10-28T20:38:29.279Z,14.40
2022-10-28T20:41:00.530Z,14.50
2022-10-28T20:43:30.165Z,14.30
2022-10-28T20:45:59.796Z,14.40
2022-10-28T20:48:29.323Z,14.20
2022-10-28T20:53:31.289Z,14.20
2022-10-28T20:56:01.530Z,14.20
2022-10-28T20:58:31.373Z,14.10
2022-10-28T21:01:04.388Z,14.10
2022-10-28T21:03:32.567Z,14.10
2022-10-28T21:06:00.591Z,13.80
2022-10-28T21:08:28.600Z,14.00
2022-10-28T21:10:56.596Z,14.10
2022-10-28T21:13:25.937Z,14.00
2022-10-28T21:15:56.610Z,14.00
2022-10-28T21:18:26.500Z,14.00
2022-10-28T21:20:57.027Z,14.00
2022-10-28T21:23:25.104Z,13.90
2022-10-28T21:25:54.215Z,13.90
2022-10-28T21:28:22.450Z,14.00
2022-10-28T21:33:21.617Z,13.80
2022-10-28T21:35:56.868Z,13.90
2022-10-28T21:38:24.922Z,13.80
2022-10-28T21:41:00.600Z,13.80
2022-10-28T21:43:33.901Z,13.90
2022-10-28T21:46:03.409Z,13.70
2022-10-28T21:48:32.415Z,13.60
2022-10-28T21:53:33.316Z,13.70
2022-10-28T21:56:05.197Z,14.30
2022-10-28T21:58:33.640Z,13.90
2022-10-28T22:01:09.860Z,13.50
2022-10-28T22:03:38.955Z,13.70
2022-10-28T22:06:07.817Z,13.70
2022-10-28T22:08:36.030Z,14.30
2022-10-28T22:11:06.058Z,13.70
2022-10-28T22:13:34.096Z,13.70
2022-10-28T22:16:03.931Z,13.60
2022-10-28T22:18:34.965Z,13.60
2022-10-28T22:21:05.905Z,13.70
2022-10-28T22:23:33.959Z,13.80
2022-10-28T22:26:02.822Z,13.50
2022-10-28T22:31:00.089Z,13.50
2022-10-28T22:33:28.463Z,13.70
2022-10-28T22:36:02.871Z,14.30
2022-10-28T22:38:31.105Z,13.40
2022-10-28T22:41:06.976Z,14.50
2022-10-28T22:43:35.472Z,14.20
2022-10-28T22:46:03.456Z,14.50
2022-10-28T22:48:32.201Z,14.40
2022-10-28T22:51:02.131Z,14.30
2022-10-28T22:53:30.375Z,14.00
2022-10-28T22:55:58.871Z,13.80
2022-10-28T22:58:28.212Z,13.40
2022-10-28T23:01:05.884Z,13.40
2022-10-28T23:03:37.025Z,14.00
2022-10-28T23:06:07.109Z,13.40
2022-10-28T23:08:35.177Z,13.50
2022-10-28T23:11:03.222Z,14.20
2022-10-28T23:13:31.291Z,13.50
2022-10-28T23:16:03.836Z,13.50
2022-10-28T23:18:31.995Z,13.50
2022-10-28T23:21:06.884Z,14.30
2022-10-28T23:23:34.960Z,12.50
2022-10-28T23:26:02.893Z,13.40
2022-10-28T23:28:31.031Z,13.50
2022-10-28T23:31:01.735Z,13.40
2022-10-28T23:33:30.561Z,13.40
2022-10-28T23:35:59.688Z,14.30
2022-10-28T23:38:29.108Z,13.40
2022-10-28T23:40:58.773Z,13.40
2022-10-28T23:43:27.087Z,14.30
2022-10-28T23:45:55.152Z,13.20
2022-10-28T23:50:52.398Z,13.30
2022-10-28T23:53:21.034Z,13.20
2022-10-28T23:55:51.406Z,13.50
2022-10-28T23:58:21.202Z,13.20
